Time;durP1;ratioP1;P1;durP2;ratioP2;P2;SDS_P1;SDS_P2;PMS_P1;PMS_P2;Temp;Humidity;BMP_temperature;BMP_pressure;BME280_temperature;BME280_humidity;BME280_pressure;Samples;Min_cycle;Max_cycle;Signal;HPM_P1;HPM_P2
2023/09/17 00:02:16;;;;;;;11.20;7.97;;;;;;;21.58;81.53;99635.47;5093302;28;20764;-84
2023/09/17 00:04:41;;;;;;;11.68;8.57;;;;;;;21.60;81.54;99635.13;5091212;28;20257;-84
2023/09/17 00:07:07;;;;;;;11.63;8.32;;;;;;;21.57;81.11;99636.63;5091512;28;20489;-84
2023/09/17 00:09:32;;;;;;;17.02;9.48;;;;;;;21.58;81.43;99637.47;5091553;28;20020;-85
2023/09/17 00:11:58;;;;;;;15.32;9.32;;;;;;;21.58;81.53;99641.00;5093744;28;20120;-85
2023/09/17 00:14:23;;;;;;;14.75;10.43;;;;;;;21.62;81.34;99632.03;5093129;28;20028;-84
2023/09/17 00:16:49;;;;;;;13.65;9.52;;;;;;;21.62;81.19;99629.25;5093984;28;20465;-84
2023/09/17 00:19:14;;;;;;;13.40;9.07;;;;;;;21.59;81.44;99636.28;5094554;28;20020;-84
2023/09/17 00:21:39;;;;;;;14.48;9.07;;;;;;;21.56;81.40;99629.47;5094137;28;20469;-84
2023/09/17 00:24:05;;;;;;;12.53;9.23;;;;;;;21.54;81.35;99630.97;5092953;28;20088;-85
2023/09/17 00:26:30;;;;;;;17.15;9.10;;;;;;;21.52;81.14;99625.75;5093887;28;20271;-85
2023/09/17 00:28:56;;;;;;;14.93;9.68;;;;;;;21.53;81.30;99624.59;5095928;28;20484;-85
2023/09/17 00:31:21;;;;;;;11.60;8.83;;;;;;;21.53;81.40;99627.38;5093213;28;20536;-85
2023/09/17 00:33:46;;;;;;;13.60;8.10;;;;;;;21.54;81.17;99626.22;5092963;28;20268;-85
2023/09/17 00:36:12;;;;;;;12.97;8.93;;;;;;;21.57;81.37;99628.31;5093752;28;20024;-85
2023/09/17 00:38:37;;;;;;;16.50;8.53;;;;;;;21.56;81.22;99626.69;5092971;28;20264;-84
2023/09/17 00:41:02;;;;;;;16.27;9.20;;;;;;;21.57;81.28;99620.00;5093510;28;20789;-85
2023/09/17 00:43:27;;;;;;;11.80;8.40;;;;;;;21.57;81.38;99624.72;5091969;28;20389;-85
2023/09/17 00:45:53;;;;;;;16.30;9.77;;;;;;;21.57;81.20;99628.31;5093570;28;20336;-84
2023/09/17 00:48:18;;;;;;;13.02;8.60;;;;;;;21.56;81.18;99629.47;5092710;28;20016;-84
2023/09/17 00:50:44;;;;;;;15.45;8.50;;;;;;;21.58;81.44;99626.38;5092114;28;20036;-85
2023/09/17 00:53:09;;;;;;;14.02;8.73;;;;;;;21.58;81.34;99616.06;5094424;28;20020;-85
2023/09/17 00:55:36;;;;;;;14.38;8.80;;;;;;;21.58;81.44;99618.03;5091745;28;20036;-85
2023/09/17 00:58:03;;;;;;;15.43;8.98;;;;;;;21.57;81.08;99617.22;5093370;28;20028;-85
2023/09/17 01:00:29;;;;;;;13.57;8.73;;;;;;;21.60;81.21;99612.16;5093086;28;20024;-84
2023/09/17 01:02:54;;;;;;;13.38;8.73;;;;;;;21.61;81.28;99606.25;5092700;28;20036;-85
2023/09/17 01:05:20;;;;;;;11.95;8.20;;;;;;;21.63;81.16;99600.34;5090959;28;20073;-86
2023/09/17 01:07:46;;;;;;;14.27;10.05;;;;;;;21.63;80.83;99584.53;5087603;28;20048;-84
2023/09/17 01:10:11;;;;;;;12.70;9.40;;;;;;;21.64;81.00;99593.66;5087157;28;20031;-85
2023/09/17 01:12:38;;;;;;;14.18;8.52;;;;;;;21.62;80.72;99593.19;5090133;28;20053;-84
2023/09/17 01:15:06;;;;;;;11.75;8.68;;;;;;;21.62;80.92;99587.66;5090809;28;20031;-84
2023/09/17 01:17:32;;;;;;;15.75;9.57;;;;;;;21.62;80.92;99593.19;5091902;28;20020;-85
2023/09/17 01:19:57;;;;;;;14.02;8.80;;;;;;;21.61;81.21;99594.34;5090908;28;20024;-84
2023/09/17 01:22:32;;;;;;;14.02;7.93;;;;;;;21.60;81.26;99587.19;5091855;28;20031;-85
2023/09/17 01:25:32;;;;;;;13.98;9.00;;;;;;;21.58;81.11;99587.53;5090842;28;20070;-84
2023/09/17 01:27:59;;;;;;;12.02;8.40;;;;;;;21.54;81.34;99590.16;5089188;28;20040;-84
2023/09/17 01:30:24;;;;;;;13.82;9.85;;;;;;;21.53;81.54;99618.25;5087993;28;20040;-83
2023/09/17 01:32:49;;;;;;;11.70;7.55;;;;;;;21.46;81.90;99640.97;5086480;28;20032;-84
2023/09/17 01:35:17;;;;;;;15.07;9.87;;;;;;;21.36;82.31;99655.28;5088738;28;20035;-85
2023/09/17 01:38:01;;;;;;;13.68;9.88;;;;;;;21.43;82.34;99638.91;5089983;28;20261;-86
2023/09/17 01:40:28;;;;;;;18.40;10.20;;;;;;;21.45;82.24;99642.16;5092485;28;20024;-85
2023/09/17 01:42:55;;;;;;;14.32;11.07;;;;;;;21.44;82.59;99648.81;5091321;28;20054;-84
2023/09/17 01:45:21;;;;;;;15.38;10.48;;;;;;;21.49;82.48;99643.09;5091677;28;20020;-85
2023/09/17 01:47:48;;;;;;;20.58;11.10;;;;;;;21.54;82.24;99637.31;5092147;28;20031;-85
2023/09/17 01:50:15;;;;;;;16.15;11.23;;;;;;;21.55;82.15;99640.91;5090881;28;20027;-85
2023/09/17 01:52:43;;;;;;;17.08;11.68;;;;;;;21.55;82.22;99632.56;5091496;28;20066;-85
2023/09/17 01:55:12;;;;;;;18.58;12.93;;;;;;;21.55;82.43;99633.41;5090208;28;20046;-85
2023/09/17 01:57:37;;;;;;;17.63;13.05;;;;;;;21.56;82.27;99628.66;5090505;28;20044;-84
2023/09/17 02:00:14;;;;;;;17.35;13.52;;;;;;;21.57;82.57;99630.28;5090789;28;20035;-85
2023/09/17 02:02:43;;;;;;;21.80;14.63;;;;;;;21.54;82.86;99653.94;5091867;28;20020;-85
2023/09/17 02:05:09;;;;;;;24.23;17.17;;;;;;;21.58;82.68;99643.00;5089111;28;20036;-85
2023/09/17 02:07:35;;;;;;;28.80;19.33;;;;;;;21.57;83.09;99630.28;5091973;28;20085;-84
2023/09/17 02:10:01;;;;;;;31.30;23.00;;;;;;;21.57;82.84;99620.00;5090820;28;20027;-85
2023/09/17 02:12:28;;;;;;;31.50;21.30;;;;;;;21.50;83.29;99641.91;5091237;28;20126;-85
2023/09/17 02:14:54;;;;;;;29.80;22.25;;;;;;;21.51;83.13;99643.56;5090821;28;20659;-84
2023/09/17 02:17:19;;;;;;;32.70;23.27;;;;;;;21.51;83.19;99632.47;5093223;28;20039;-84
2023/09/17 02:19:44;;;;;;;32.15;22.83;;;;;;;21.50;82.97;99633.59;5094184;28;20253;-85
2023/09/17 02:22:10;;;;;;;33.95;21.35;;;;;;;21.40;83.40;99636.81;5088975;28;20024;-84
2023/09/17 02:24:36;;;;;;;32.87;24.00;;;;;;;21.36;83.80;99630.34;5093722;28;20077;-84
2023/09/17 02:27:02;;;;;;;37.30;22.55;;;;;;;21.39;83.30;99621.34;5092105;28;20253;-77
2023/09/17 02:29:27;;;;;;;31.20;21.98;;;;;;;21.44;83.50;99621.91;5090412;28;20056;-77
2023/09/17 02:31:54;;;;;;;29.23;22.60;;;;;;;21.43;83.27;99613.94;5090833;28;20058;-76
2023/09/17 02:34:19;;;;;;;28.27;21.98;;;;;;;21.40;83.40;99617.44;5093659;28;20049;-76
2023/09/17 02:36:44;;;;;;;32.87;22.43;;;;;;;21.38;83.39;99617.75;5091420;28;20020;-77
2023/09/17 02:39:11;;;;;;;29.43;21.67;;;;;;;21.39;83.20;99610.25;5091559;28;20268;-77
2023/09/17 02:41:37;;;;;;;31.77;21.83;;;;;;;21.36;82.87;99610.94;5089634;28;20276;-77
2023/09/17 02:44:02;;;;;;;30.23;21.25;;;;;;;21.30;82.96;99607.56;5091135;28;20028;-77
2023/09/17 02:46:28;;;;;;;32.30;20.67;;;;;;;21.27;82.95;99594.38;5091431;28;20031;-78
2023/09/17 02:48:54;;;;;;;30.87;22.97;;;;;;;21.27;82.76;99592.44;5092790;28;20103;-76
2023/09/17 02:51:20;;;;;;;27.35;21.48;;;;;;;21.26;82.47;99590.78;5089649;28;20339;-76
2023/09/17 02:53:46;;;;;;;27.83;20.35;;;;;;;21.27;82.18;99588.84;5090431;28;20118;-76
2023/09/17 02:56:12;;;;;;;29.85;20.95;;;;;;;21.24;82.55;99584.78;5095577;28;20028;-77
2023/09/17 02:58:38;;;;;;;29.75;20.83;;;;;;;21.22;82.65;99587.91;5090862;28;20021;-76
2023/09/17 03:01:17;;;;;;;29.50;21.08;;;;;;;21.25;82.75;99580.06;5090367;28;20073;-77
2023/09/17 03:03:46;;;;;;;32.17;22.92;;;;;;;21.24;82.29;99584.78;5087228;28;20126;-76
2023/09/17 03:06:11;;;;;;;34.13;23.77;;;;;;;21.25;82.50;99586.41;5090472;28;20120;-78
2023/09/17 03:08:44;;;;;;;34.95;22.77;;;;;;;21.26;82.68;99592.75;5088409;28;20482;-76
2023/09/17 03:11:15;;;;;;;33.63;22.98;;;;;;;21.23;82.37;99599.81;5086990;28;20055;-78
2023/09/17 03:13:42;;;;;;;32.67;22.90;;;;;;;21.19;82.59;99594.16;5083706;28;20032;-77
2023/09/17 03:16:07;;;;;;;33.25;23.90;;;;;;;21.15;82.40;99603.47;5090989;28;20099;-76
2023/09/17 03:18:32;;;;;;;30.30;22.15;;;;;;;21.11;82.67;99604.13;5089973;28;20119;-77
2023/09/17 03:20:58;;;;;;;33.50;22.03;;;;;;;21.07;83.01;99594.09;5089883;28;20415;-76
2023/09/17 03:23:23;;;;;;;31.75;23.38;;;;;;;21.03;82.73;99595.94;5090263;28;20256;-78
2023/09/17 03:25:48;;;;;;;31.05;21.50;;;;;;;21.01;83.01;99593.50;5087752;28;20035;-76
2023/09/17 03:28:14;;;;;;;31.10;21.83;;;;;;;21.03;82.84;99585.63;5093399;28;20047;-77
2023/09/17 03:30:39;;;;;;;31.95;22.85;;;;;;;21.02;82.90;99589.56;5094277;28;20016;-77
2023/09/17 03:33:05;;;;;;;37.00;24.33;;;;;;;21.06;82.52;99584.16;5093696;28;20027;-78
2023/09/17 03:35:32;;;;;;;31.70;21.88;;;;;;;21.06;82.74;99589.69;5094595;28;20297;-78
2023/09/17 03:37:58;;;;;;;33.38;22.55;;;;;;;21.04;82.59;99581.72;5094413;28;20024;-78
2023/09/17 03:40:24;;;;;;;32.50;22.25;;;;;;;21.01;82.42;99582.41;5094751;28;20016;-77
2023/09/17 03:42:49;;;;;;;34.58;23.88;;;;;;;21.01;82.49;99592.69;5094410;28;20049;-76
2023/09/17 03:45:15;;;;;;;32.17;23.77;;;;;;;20.98;82.85;99586.66;5094001;28;20071;-77
2023/09/17 03:47:41;;;;;;;27.70;20.95;;;;;;;21.00;82.44;99591.88;5094377;28;20071;-77
2023/09/17 03:50:16;;;;;;;34.80;22.73;;;;;;;20.99;82.69;99581.94;5092663;28;20032;-77
2023/09/17 03:52:45;;;;;;;29.98;21.70;;;;;;;20.99;82.52;99579.19;5089751;28;20024;-76
2023/09/17 03:55:12;;;;;;;30.83;22.17;;;;;;;21.00;82.62;99569.69;5091728;28;20492;-77
2023/09/17 03:57:38;;;;;;;34.40;21.77;;;;;;;21.02;82.54;99569.34;5094570;28;20107;-76
2023/09/17 04:00:10;;;;;;;32.67;22.52;;;;;;;21.02;82.19;99567.41;5094000;28;20020;-77
2023/09/17 04:02:39;;;;;;;38.28;24.20;;;;;;;21.02;82.60;99572.13;5094362;28;20040;-78
2023/09/17 04:05:10;;;;;;;32.85;21.80;;;;;;;21.02;82.29;99566.59;5093760;28;20549;-79
2023/09/17 04:07:37;;;;;;;35.35;24.38;;;;;;;20.98;82.12;99556.19;5093479;28;20071;-78
2023/09/17 04:10:05;;;;;;;34.00;22.63;;;;;;;20.96;82.58;99560.41;5094152;28;20058;-78
2023/09/17 04:12:35;;;;;;;30.95;25.02;;;;;;;20.92;82.43;99557.53;5090749;28;20032;-78
2023/09/17 04:15:02;;;;;;;34.72;24.50;;;;;;;20.90;82.39;99556.25;5091192;28;20039;-77
2023/09/17 04:17:28;;;;;;;34.05;24.67;;;;;;;20.91;82.46;99563.41;5092966;28;20027;-77
2023/09/17 04:19:53;;;;;;;35.65;23.30;;;;;;;20.89;82.26;99552.66;5091251;28;20028;-77
2023/09/17 04:22:18;;;;;;;35.17;22.57;;;;;;;20.87;82.23;99555.75;5093144;28;20469;-77
2023/09/17 04:24:44;;;;;;;35.93;23.47;;;;;;;20.91;82.31;99566.19;5093116;28;20328;-78
2023/09/17 04:27:11;;;;;;;27.65;21.25;;;;;;;20.90;82.16;99561.78;5097951;28;21398;-79
2023/09/17 04:29:36;;;;;;;29.95;22.15;;;;;;;20.90;81.96;99564.56;5093821;28;20028;-79
2023/09/17 04:32:02;;;;;;;31.02;23.58;;;;;;;20.86;82.05;99565.25;5093020;28;20489;-77
2023/09/17 04:34:28;;;;;;;35.58;24.10;;;;;;;20.85;82.15;99568.31;5090358;28;20020;-78
2023/09/17 04:36:53;;;;;;;40.33;27.77;;;;;;;20.81;82.39;99573.75;5093256;28;20388;-77
2023/09/17 04:39:18;;;;;;;33.77;24.47;;;;;;;20.76;82.41;99566.47;5092687;28;20256;-78
2023/09/17 04:41:44;;;;;;;38.80;24.88;;;;;;;20.79;82.57;99564.97;5093279;28;20713;-78
2023/09/17 04:44:10;;;;;;;34.47;23.50;;;;;;;20.77;82.67;99561.72;5087648;28;20036;-77
2023/09/17 04:46:39;;;;;;;39.00;25.30;;;;;;;20.75;82.74;99559.28;5092839;28;20051;-78
2023/09/17 04:49:04;;;;;;;35.22;23.98;;;;;;;20.73;82.71;99566.31;5094586;28;20036;-79
2023/09/17 04:51:29;;;;;;;32.00;23.75;;;;;;;20.76;82.83;99552.63;5086025;28;20580;-78
2023/09/17 04:53:55;;;;;;;34.33;21.93;;;;;;;20.77;82.71;99556.19;5085865;28;20078;-77
2023/09/17 04:56:20;;;;;;;35.40;25.77;;;;;;;20.76;82.76;99547.09;5088140;28;20347;-76
2023/09/17 04:58:45;;;;;;;35.77;25.43;;;;;;;20.77;82.81;99557.00;5092228;28;20268;-77
2023/09/17 05:01:12;;;;;;;40.90;26.83;;;;;;;20.76;82.94;99551.81;5091259;28;20344;-76
2023/09/17 05:03:38;;;;;;;41.28;26.92;;;;;;;20.78;82.72;99549.50;5091436;28;20271;-77
2023/09/17 05:06:03;;;;;;;35.22;24.77;;;;;;;20.79;82.49;99548.34;5093069;28;20036;-79
2023/09/17 05:08:28;;;;;;;62.08;24.73;;;;;;;20.79;82.82;99551.13;5092320;28;20024;-77
2023/09/17 05:10:54;;;;;;;36.27;25.97;;;;;;;20.81;82.48;99550.81;5092422;28;20065;-76
2023/09/17 05:13:19;;;;;;;40.60;25.52;;;;;;;20.77;82.67;99547.88;5093034;28;20283;-77
2023/09/17 05:15:44;;;;;;;39.95;25.10;;;;;;;20.76;82.85;99555.41;5087098;28;20036;-78
2023/09/17 05:18:10;;;;;;;34.87;24.10;;;;;;;20.77;82.95;99556.19;5085728;28;20426;-77
2023/09/17 05:20:38;;;;;;;34.50;24.67;;;;;;;20.80;82.78;99551.94;5084889;28;20283;-79
2023/09/17 05:23:03;;;;;;;35.97;24.65;;;;;;;20.81;82.86;99559.91;5089490;28;20071;-77
2023/09/17 05:25:28;;;;;;;37.83;26.23;;;;;;;20.77;83.14;99561.72;5089625;28;20032;-78
2023/09/17 05:27:54;;;;;;;36.90;25.70;;;;;;;20.75;83.17;99564.03;5091376;28;20032;-76
2023/09/17 05:30:19;;;;;;;35.97;25.57;;;;;;;20.72;83.32;99565.53;5092201;28;20024;-76
2023/09/17 05:32:44;;;;;;;44.60;24.73;;;;;;;20.72;83.35;99565.53;5093320;28;20028;-77
2023/09/17 05:35:10;;;;;;;38.85;26.15;;;;;;;20.72;83.23;99564.72;5091409;28;20480;-77
2023/09/17 05:37:35;;;;;;;39.72;26.33;;;;;;;20.70;83.55;99572.53;5096136;28;20028;-77
2023/09/17 05:40:00;;;;;;;37.60;26.73;;;;;;;20.69;83.79;99566.19;5092968;28;20487;-78
2023/09/17 05:42:26;;;;;;;36.13;26.60;;;;;;;20.67;83.78;99574.03;5092060;28;20396;-77
2023/09/17 05:44:52;;;;;;;42.55;27.30;;;;;;;20.69;83.75;99579.22;5091888;28;20020;-78
2023/09/17 05:47:17;;;;;;;40.58;27.80;;;;;;;20.65;83.80;99566.06;5088066;28;20023;-77
2023/09/17 05:49:43;;;;;;;45.55;28.05;;;;;;;20.67;84.10;99573.22;5091978;28;20027;-78
2023/09/17 05:52:08;;;;;;;39.38;26.77;;;;;;;20.70;84.13;99572.53;5090893;28;20028;-76
2023/09/17 05:54:34;;;;;;;37.35;27.15;;;;;;;20.70;84.04;99570.59;5094382;28;20028;-77
2023/09/17 05:56:59;;;;;;;38.23;26.17;;;;;;;20.73;83.96;99572.69;5092728;28;20036;-84
2023/09/17 05:59:24;;;;;;;40.75;26.00;;;;;;;20.72;84.08;99564.72;5095140;28;20264;-84
2023/09/17 06:01:50;;;;;;;41.90;28.03;;;;;;;20.71;84.28;99565.84;5092945;28;20352;-84
2023/09/17 06:04:15;;;;;;;38.05;25.42;;;;;;;20.74;84.13;99568.78;5091323;28;20268;-84
2023/09/17 06:06:40;;;;;;;40.75;29.00;;;;;;;20.76;84.08;99571.19;5087040;28;20056;-84
2023/09/17 06:09:06;;;;;;;42.57;28.23;;;;;;;20.72;84.25;99562.75;5084349;28;20039;-84
2023/09/17 06:11:31;;;;;;;38.83;27.10;;;;;;;20.75;84.48;99564.84;5084746;28;20036;-84
2023/09/17 06:13:56;;;;;;;36.03;25.58;;;;;;;20.80;84.02;99565.78;5083814;28;20039;-84
2023/09/17 06:16:21;;;;;;;40.00;25.43;;;;;;;20.76;84.20;99565.66;5085308;28;20028;-84
2023/09/17 06:18:47;;;;;;;36.63;25.23;;;;;;;20.81;84.18;99564.66;5084178;28;20259;-84
2023/09/17 06:21:12;;;;;;;35.27;23.00;;;;;;;20.87;84.12;99561.31;5083031;28;20749;-84
2023/09/17 06:23:38;;;;;;;37.17;25.40;;;;;;;20.88;83.89;99551.03;5084042;28;20261;-84
2023/09/17 06:26:06;;;;;;;35.80;24.35;;;;;;;20.92;84.06;99556.72;5084837;28;20424;-84
2023/09/17 06:28:31;;;;;;;34.13;25.50;;;;;;;20.92;84.25;99563.06;5087740;28;20028;-84
2023/09/17 06:30:56;;;;;;;39.10;25.50;;;;;;;20.90;84.36;99565.38;5090905;28;20078;-84
2023/09/17 06:33:22;;;;;;;34.03;24.30;;;;;;;20.93;84.42;99558.34;5092928;28;20784;-83
2023/09/17 06:35:47;;;;;;;35.30;24.65;;;;;;;20.97;84.35;99565.66;5092598;28;20260;-84
2023/09/17 06:38:12;;;;;;;35.90;23.95;;;;;;;21.02;84.54;99564.63;5093266;28;20127;-84
2023/09/17 06:40:37;;;;;;;27.67;19.43;;;;;;;21.09;84.58;99564.09;5092618;28;20374;-84
2023/09/17 06:43:03;;;;;;;28.70;19.40;;;;;;;21.14;84.46;99563.03;5091454;28;20286;-84
2023/09/17 06:45:28;;;;;;;34.15;19.50;;;;;;;21.19;84.36;99560.06;5092194;28;20276;-84
2023/09/17 06:47:53;;;;;;;26.83;18.38;;;;;;;21.23;84.26;99555.47;5095932;27;20039;-84
2023/09/17 06:50:19;;;;;;;24.20;17.58;;;;;;;21.26;84.53;99557.53;5091433;28;20028;-83
2023/09/17 06:52:44;;;;;;;26.97;16.97;;;;;;;21.34;84.48;99561.38;5091253;28;20039;-81
2023/09/17 06:55:09;;;;;;;22.73;15.27;;;;;;;21.34;84.76;99559.41;5087647;28;20104;-81
2023/09/17 06:57:35;;;;;;;26.27;16.20;;;;;;;21.39;84.82;99560.34;5087109;28;20283;-80
2023/09/17 07:00:00;;;;;;;23.77;16.30;;;;;;;21.43;84.53;99559.31;5092436;28;20115;-81
2023/09/17 07:02:25;;;;;;;25.20;16.57;;;;;;;21.49;84.59;99562.66;5090845;28;20036;-79
2023/09/17 07:04:50;;;;;;;22.93;15.97;;;;;;;21.54;84.60;99559.66;5091873;28;20409;-79
2023/09/17 07:07:16;;;;;;;22.40;16.00;;;;;;;21.61;84.41;99558.28;5091072;28;20277;-82
2023/09/17 07:09:41;;;;;;;19.25;13.30;;;;;;;21.65;84.54;99550.91;5090748;28;20300;-81
2023/09/17 07:12:07;;;;;;;21.23;13.23;;;;;;;21.69;84.08;99549.06;5084543;28;20032;-79
2023/09/17 07:14:32;;;;;;;23.30;13.95;;;;;;;21.75;83.96;99550.44;5089283;28;20044;-81
2023/09/17 07:16:57;;;;;;;19.73;12.50;;;;;;;21.80;83.63;99552.97;5085323;28;20040;-78
2023/09/17 07:19:22;;;;;;;16.47;11.93;;;;;;;21.84;83.21;99560.66;5086981;28;20044;-78
2023/09/17 07:21:48;;;;;;;14.07;10.20;;;;;;;21.84;83.08;99547.59;5083466;28;20257;-79
2023/09/17 07:24:13;;;;;;;15.75;11.30;;;;;;;21.84;82.78;99552.31;5086439;28;20052;-78
2023/09/17 07:26:38;;;;;;;13.37;8.47;;;;;;;21.83;82.83;99550.69;5086550;28;20040;-79
2023/09/17 07:29:04;;;;;;;18.63;13.25;;;;;;;21.85;82.94;99551.97;5088622;28;20641;-78
2023/09/17 07:31:29;;;;;;;21.05;14.68;;;;;;;21.86;83.34;99558.34;5090352;28;20069;-83
2023/09/17 07:33:55;;;;;;;30.30;20.40;;;;;;;21.84;83.59;99555.09;5087992;28;20048;-80
2023/09/17 07:36:20;;;;;;;34.77;24.50;;;;;;;21.84;84.08;99561.47;5084152;28;20051;-81
2023/09/17 07:38:45;;;;;;;23.75;17.52;;;;;;;21.84;84.45;99549.56;5084815;28;20276;-77
2023/09/17 07:41:11;;;;;;;15.13;10.20;;;;;;;21.85;83.86;99562.25;5090418;28;20035;-77
2023/09/17 07:43:36;;;;;;;16.60;10.32;;;;;;;21.93;83.54;99555.78;5083204;27;20053;-78
2023/09/17 07:46:02;;;;;;;11.77;7.65;;;;;;;21.98;83.00;99555.56;5089881;28;20028;-79
2023/09/17 07:48:31;;;;;;;13.50;9.07;;;;;;;21.99;82.81;99548.84;5083242;27;20036;-77
2023/09/17 07:50:58;;;;;;;16.50;8.80;;;;;;;22.03;82.62;99552.53;5088435;28;20401;-82
2023/09/17 07:53:24;;;;;;;12.82;9.23;;;;;;;22.07;82.30;99557.41;5088471;27;20115;-85
2023/09/17 07:55:50;;;;;;;12.23;7.97;;;;;;;22.07;82.27;99560.19;5087739;28;20615;-87
2023/09/17 07:58:15;;;;;;;19.95;8.55;;;;;;;22.06;81.98;99562.16;5095352;28;20043;-87
2023/09/17 08:00:41;;;;;;;11.57;7.00;;;;;;;22.10;81.70;99557.50;5089609;28;20040;-87
2023/09/17 08:03:06;;;;;;;9.98;6.55;;;;;;;22.18;80.91;99558.53;5085143;28;20821;-84
2023/09/17 08:05:32;;;;;;;9.10;5.93;;;;;;;22.13;80.90;99559.56;5087801;28;20115;-85
2023/09/17 08:07:58;;;;;;;13.77;7.43;;;;;;;22.17;81.02;99559.69;5088818;28;20328;-84
2023/09/17 08:10:23;;;;;;;10.20;6.05;;;;;;;22.21;80.17;99557.03;5084592;28;20040;-85
2023/09/17 08:12:48;;;;;;;10.57;6.20;;;;;;;22.25;80.58;99557.97;5086310;28;20062;-84
2023/09/17 08:15:16;;;;;;;7.37;5.23;;;;;;;22.24;80.67;99559.91;5092304;28;20054;-85
2023/09/17 08:17:43;;;;;;;8.73;5.82;;;;;;;22.25;79.97;99564.31;5092296;28;20272;-85
2023/09/17 08:20:09;;;;;;;9.68;5.38;;;;;;;22.25;79.30;99564.31;5094850;28;20717;-83
2023/09/17 08:22:35;;;;;;;7.80;5.28;;;;;;;22.30;78.80;99566.03;5092964;28;20024;-84
2023/09/17 08:25:01;;;;;;;16.52;7.32;;;;;;;22.25;78.36;99555.19;5094185;28;20135;-84
2023/09/17 08:27:26;;;;;;;10.23;5.88;;;;;;;22.24;78.01;99565.47;5093628;28;20024;-86
2023/09/17 08:29:52;;;;;;;9.13;5.32;;;;;;;22.25;78.46;99569.06;5090406;28;20036;-86
2023/09/17 08:32:18;;;;;;;8.45;5.85;;;;;;;22.27;77.94;99562.00;5088216;28;20028;-82
2023/09/17 08:34:43;;;;;;;8.23;5.30;;;;;;;22.30;77.54;99565.22;5092972;28;20044;-80
2023/09/17 08:37:08;;;;;;;8.80;5.60;;;;;;;22.33;77.45;99570.09;5093072;28;20062;-88
2023/09/17 08:39:33;;;;;;;9.30;4.82;;;;;;;22.38;77.48;99567.06;5090184;28;20292;-82
2023/09/17 08:42:00;;;;;;;7.77;4.83;;;;;;;22.37;77.26;99571.00;5092510;28;20471;-83
2023/09/17 08:44:27;;;;;;;11.85;5.28;;;;;;;22.42;77.35;99567.16;5091374;28;20284;-82
2023/09/17 08:46:55;;;;;;;9.48;5.75;;;;;;;22.40;77.28;99570.28;5090343;28;20024;-87
2023/09/17 08:49:21;;;;;;;8.63;5.43;;;;;;;22.45;77.45;99567.28;5087902;28;20554;-84
2023/09/17 08:51:47;;;;;;;11.52;5.75;;;;;;;22.47;77.14;99570.53;5087103;28;20055;-83
2023/09/17 08:54:34;;;;;;;9.32;5.80;;;;;;;22.51;77.25;99571.44;5092769;28;20135;-84
2023/09/17 08:57:02;;;;;;;8.45;5.05;;;;;;;22.59;77.47;99564.13;5089449;28;20039;-80
2023/09/17 08:59:30;;;;;;;8.85;5.32;;;;;;;22.63;77.50;99561.44;5093327;27;20048;-85
2023/09/17 09:02:00;;;;;;;10.88;5.68;;;;;;;22.67;77.17;99562.41;5092573;28;20438;-82
2023/09/17 09:04:27;;;;;;;8.70;4.90;;;;;;;22.69;76.81;99562.84;5087086;27;20051;-78
2023/09/17 09:06:54;;;;;;;10.75;5.30;;;;;;;22.74;76.57;99564.56;5091653;28;20795;-84
2023/09/17 09:09:21;;;;;;;7.68;4.10;;;;;;;22.78;76.15;99567.47;5090931;28;20029;-77
2023/09/17 09:11:48;;;;;;;8.23;5.45;;;;;;;22.80;76.21;99565.91;5092216;28;20473;-79
2023/09/17 09:14:14;;;;;;;7.95;4.50;;;;;;;22.88;76.13;99566.97;5092012;28;20465;-81
2023/09/17 09:16:39;;;;;;;12.00;5.53;;;;;;;22.93;75.44;99565.88;5090210;28;20043;-80
2023/09/17 09:19:06;;;;;;;6.90;4.17;;;;;;;22.91;74.98;99570.97;5089944;28;20032;-80
2023/09/17 09:21:31;;;;;;;8.80;4.65;;;;;;;22.93;74.45;99565.88;5088672;28;20626;-78
2023/09/17 09:23:59;;;;;;;7.22;4.70;;;;;;;22.98;74.46;99565.63;5084957;28;20047;-82
2023/09/17 09:26:33;;;;;;;7.10;4.88;;;;;;;23.04;73.78;99566.19;5083450;28;20605;-76
2023/09/17 09:28:58;;;;;;;7.35;4.53;;;;;;;23.11;73.58;99560.81;5086149;28;20032;-80
2023/09/17 09:31:24;;;;;;;7.77;5.13;;;;;;;23.16;73.48;99566.13;5085949;28;20058;-79
2023/09/17 09:33:50;;;;;;;7.97;4.38;;;;;;;23.21;73.57;99562.25;5089384;28;20371;-82
2023/09/17 09:36:15;;;;;;;8.55;4.55;;;;;;;23.21;72.90;99567.81;5088292;28;20092;-83
2023/09/17 09:38:42;;;;;;;7.10;4.10;;;;;;;23.28;73.17;99583.88;5087870;28;20043;-82
2023/09/17 09:41:07;;;;;;;9.70;4.68;;;;;;;23.33;72.82;99581.66;5086576;28;20439;-85
2023/09/17 09:43:32;;;;;;;7.97;4.53;;;;;;;23.35;72.15;99572.94;5082446;28;20048;-83
2023/09/17 09:46:04;;;;;;;9.68;5.30;;;;;;;23.43;72.11;99573.97;5087180;28;20106;-82
2023/09/17 09:48:31;;;;;;;8.88;4.05;;;;;;;23.47;72.20;99569.34;5092397;28;20111;-87
2023/09/17 09:50:57;;;;;;;8.07;3.67;;;;;;;23.50;71.67;99565.81;5087437;28;20027;-81
2023/09/17 09:53:23;;;;;;;6.38;3.72;;;;;;;23.52;71.19;99571.03;5086341;28;20051;-81
2023/09/17 09:55:48;;;;;;;6.85;3.92;;;;;;;23.53;70.88;99572.66;5087780;28;20066;-86
2023/09/17 09:58:14;;;;;;;11.27;4.30;;;;;;;23.57;70.43;99568.00;5088938;28;20048;-82
2023/09/17 10:00:44;;;;;;;7.45;3.65;;;;;;;23.65;70.52;99569.78;5091147;28;20030;-81
2023/09/17 10:03:11;;;;;;;5.55;3.25;;;;;;;23.69;70.08;99566.28;5089970;28;20035;-80
2023/09/17 10:05:37;;;;;;;5.60;3.53;;;;;;;23.70;69.74;99565.91;5088389;28;20061;-80
2023/09/17 10:08:06;;;;;;;6.13;3.13;;;;;;;23.78;69.42;99572.44;5086982;28;20643;-81
2023/09/17 10:10:33;;;;;;;6.03;3.17;;;;;;;23.81;68.46;99566.19;5089020;28;20569;-80
2023/09/17 10:13:00;;;;;;;6.43;3.63;;;;;;;23.83;68.84;99572.19;5084449;28;20157;-83
2023/09/17 10:15:26;;;;;;;7.00;3.40;;;;;;;23.89;69.25;99569.94;5083349;28;20036;-80
2023/09/17 10:17:53;;;;;;;6.20;3.75;;;;;;;23.95;69.04;99570.47;5083490;28;20044;-81
2023/09/17 10:20:21;;;;;;;5.97;3.67;;;;;;;23.98;68.73;99573.34;5082444;28;20035;-84
2023/09/17 10:22:48;;;;;;;11.48;3.85;;;;;;;24.06;68.46;99565.16;5083105;28;20113;-81
2023/09/17 10:25:14;;;;;;;6.38;3.50;;;;;;;24.09;68.13;99565.25;5082857;28;20036;-82
2023/09/17 10:27:43;;;;;;;7.20;3.10;;;;;;;24.15;67.96;99560.19;5084889;28;20816;-85
2023/09/17 10:30:10;;;;;;;8.68;3.08;;;;;;;24.17;67.48;99562.63;5084148;28;20034;-82
2023/09/17 10:32:35;;;;;;;9.13;4.63;;;;;;;24.09;67.20;99565.25;5084240;28;20115;-82
2023/09/17 10:35:02;;;;;;;9.27;3.55;;;;;;;24.08;67.23;99558.03;5083205;28;20032;-78
2023/09/17 10:37:31;;;;;;;7.20;3.92;;;;;;;24.06;66.96;99554.84;5082216;28;20836;-84
2023/09/17 10:39:57;;;;;;;11.18;4.38;;;;;;;24.06;66.51;99551.25;5081150;28;20068;-83
2023/09/17 10:42:25;;;;;;;19.08;4.32;;;;;;;24.02;66.54;99543.59;5082766;28;20077;-85
2023/09/17 10:44:55;;;;;;;7.10;3.75;;;;;;;24.00;66.71;99545.94;5083260;28;20382;-81
2023/09/17 10:47:21;;;;;;;8.65;3.85;;;;;;;24.03;66.06;99536.06;5082518;28;20046;-85
2023/09/17 10:49:46;;;;;;;6.65;4.07;;;;;;;24.07;65.76;99531.38;5081698;28;20070;-81
2023/09/17 10:52:13;;;;;;;7.68;4.10;;;;;;;24.14;65.67;99537.09;5081711;28;20799;-89
2023/09/17 10:54:38;;;;;;;9.20;3.65;;;;;;;24.12;64.35;99536.66;5083752;28;20047;-86
2023/09/17 10:57:11;;;;;;;8.27;3.60;;;;;;;24.17;64.46;99534.78;5082508;28;20028;-81
2023/09/17 10:59:37;;;;;;;7.00;3.70;;;;;;;24.18;64.98;99533.63;5081351;28;20031;-84
2023/09/17 11:02:03;;;;;;;18.55;5.70;;;;;;;24.20;65.31;99534.06;5079299;28;20373;-82
2023/09/17 11:04:31;;;;;;;42.65;7.00;;;;;;;24.26;65.31;99546.56;5081430;28;20096;-82
2023/09/17 11:07:00;;;;;;;7.72;4.07;;;;;;;24.37;65.82;99544.81;5079824;28;20045;-82
2023/09/17 11:09:25;;;;;;;23.50;4.50;;;;;;;24.52;65.48;99544.31;5081290;28;20055;-81
2023/09/17 11:11:51;;;;;;;14.85;5.13;;;;;;;24.52;64.62;99544.31;5079877;28;20821;-78
2023/09/17 11:14:16;;;;;;;10.23;4.07;;;;;;;24.47;64.37;99545.38;5084973;28;20024;-79
2023/09/17 11:16:42;;;;;;;27.48;5.10;;;;;;;24.46;63.60;99538.22;5083350;28;20028;-79
2023/09/17 11:19:19;;;;;;;16.30;4.47;;;;;;;24.51;64.09;99540.69;5081257;28;20020;-81